Time;durP1;ratioP1;P1;durP2;ratioP2;P2;SDS_P1;SDS_P2;PMS_P1;PMS_P2;Temp;Humidity;BMP_temperature;BMP_pressure;BME280_temperature;BME280_humidity;BME280_pressure;Samples;Min_cycle;Max_cycle;Signal;HPM_P1;HPM_P2
2021/07/24 00:00:38;;;;;;;26.80;24.60;;;19.50;99.90;;;;;;5093835;28;20499;-74
2021/07/24 00:03:05;;;;;;;26.07;24.00;;;19.50;99.90;;;;;;5093865;28;20500;-74
2021/07/24 00:05:32;;;;;;;26.73;24.50;;;19.60;99.90;;;;;;5093521;28;20448;-74
2021/07/24 00:07:58;;;;;;;27.00;25.00;;;19.60;99.90;;;;;;5093610;28;20973;-74
2021/07/24 00:10:25;;;;;;;26.90;24.77;;;19.50;99.90;;;;;;5093717;28;20473;-72
2021/07/24 00:12:53;;;;;;;28.67;26.33;;;19.50;99.90;;;;;;5093521;28;20470;-73
2021/07/24 00:15:20;;;;;;;28.03;25.97;;;19.50;99.90;;;;;;5093308;28;20443;-73
2021/07/24 00:17:47;;;;;;;28.07;25.87;;;19.40;99.90;;;;;;5093579;28;20817;-73
2021/07/24 00:20:14;;;;;;;27.77;25.47;;;19.40;99.90;;;;;;5093468;28;20524;-73
2021/07/24 00:22:40;;;;;;;28.10;25.30;;;19.40;99.90;;;;;;5093264;28;20661;-73
2021/07/24 00:25:08;;;;;;;29.47;27.13;;;19.40;99.90;;;;;;5093440;28;20447;-73
2021/07/24 00:27:34;;;;;;;28.33;26.00;;;19.40;99.90;;;;;;5093423;28;20499;-73
2021/07/24 00:30:03;;;;;;;26.80;24.80;;;19.30;99.90;;;;;;5092045;28;20454;-73
2021/07/24 00:32:29;;;;;;;27.93;25.60;;;19.20;99.90;;;;;;5093450;28;20844;-73
2021/07/24 00:34:56;;;;;;;28.87;26.47;;;19.20;99.90;;;;;;5093245;28;20533;-73
2021/07/24 00:37:23;;;;;;;27.37;25.17;;;19.10;99.90;;;;;;5093045;28;20551;-73
2021/07/24 00:39:49;;;;;;;28.37;26.27;;;19.10;99.90;;;;;;5093312;28;20470;-74
2021/07/24 00:42:19;;;;;;;28.90;26.53;;;19.10;99.90;;;;;;5092862;28;20454;-74
2021/07/24 00:44:47;;;;;;;28.10;25.90;;;19.20;99.90;;;;;;5092983;28;20457;-74
2021/07/24 00:47:17;;;;;;;29.33;26.80;;;19.20;99.90;;;;;;5092784;28;20872;-73
2021/07/24 00:49:45;;;;;;;27.93;25.73;;;19.10;99.90;;;;;;5092989;28;20450;-73
2021/07/24 00:52:12;;;;;;;29.50;27.00;;;19.00;99.90;;;;;;5092800;28;20454;-74
2021/07/24 00:54:39;;;;;;;27.20;25.10;;;19.00;99.90;;;;;;5092777;28;20469;-73
2021/07/24 00:57:06;;;;;;;26.50;24.30;;;19.00;99.90;;;;;;5092494;28;20482;-72
2021/07/24 00:59:32;;;;;;;25.67;23.77;;;19.00;99.90;;;;;;5092645;28;20446;-73
2021/07/24 01:01:59;;;;;;;27.63;25.40;;;19.00;99.90;;;;;;5092760;28;20478;-73
2021/07/24 01:04:27;;;;;;;27.83;25.63;;;19.00;99.90;;;;;;5092581;28;20453;-72
2021/07/24 01:06:54;;;;;;;26.73;24.80;;;19.00;99.90;;;;;;5092161;28;20443;-73
2021/07/24 01:09:21;;;;;;;26.43;24.40;;;19.00;99.90;;;;;;5092472;28;20447;-73
2021/07/24 01:11:48;;;;;;;27.27;25.17;;;19.00;99.90;;;;;;5092345;28;20446;-73
2021/07/24 01:14:15;;;;;;;26.60;24.63;;;19.00;99.90;;;;;;5092227;28;21013;-73
2021/07/24 01:16:42;;;;;;;26.67;24.57;;;19.00;99.90;;;;;;5092211;28;20482;-72
2021/07/24 01:19:09;;;;;;;27.60;25.27;;;19.00;99.90;;;;;;5092047;28;20525;-74
2021/07/24 01:21:37;;;;;;;28.50;26.37;;;19.00;99.90;;;;;;5092367;28;20438;-73
2021/07/24 01:24:04;;;;;;;27.83;25.70;;;19.00;99.90;;;;;;5092159;28;20442;-73
2021/07/24 01:26:33;;;;;;;26.87;24.63;;;18.90;99.90;;;;;;5091968;28;20500;-73
2021/07/24 01:29:01;;;;;;;27.43;25.30;;;18.80;99.90;;;;;;5092093;28;21071;-73
2021/07/24 01:31:27;;;;;;;27.77;25.67;;;18.80;99.90;;;;;;5091851;28;20443;-73
2021/07/24 01:33:54;;;;;;;28.63;26.43;;;18.80;99.90;;;;;;5092217;28;20438;-73
2021/07/24 01:36:21;;;;;;;28.30;26.10;;;18.80;99.90;;;;;;5091800;28;20482;-72
2021/07/24 01:38:49;;;;;;;27.93;25.57;;;18.80;99.90;;;;;;5091961;28;20450;-72
2021/07/24 01:41:16;;;;;;;28.00;25.97;;;18.70;99.90;;;;;;5091431;28;20453;-72
2021/07/24 01:43:43;;;;;;;27.07;24.90;;;18.70;99.90;;;;;;5091591;28;20450;-72
2021/07/24 01:46:09;;;;;;;29.97;27.20;;;18.70;99.90;;;;;;5091844;28;20447;-73
2021/07/24 01:48:38;;;;;;;31.50;28.80;;;18.70;99.90;;;;;;5091567;28;20485;-73
2021/07/24 01:53:56;;;;;;;30.80;28.20;;;18.60;99.90;;;;;;5091782;28;20421;-73
2021/07/24 01:56:28;;;;;;;30.27;27.83;;;18.60;99.90;;;;;;5091751;28;20482;-73
2021/07/24 01:58:54;;;;;;;31.23;28.33;;;18.60;99.90;;;;;;5091504;28;20442;-72
2021/07/24 02:01:23;;;;;;;30.40;28.03;;;18.60;99.90;;;;;;5091495;28;20446;-72
2021/07/24 02:03:54;;;;;;;32.63;29.73;;;18.60;99.90;;;;;;5091721;28;20787;-72
2021/07/24 02:06:21;;;;;;;30.03;27.67;;;18.50;99.90;;;;;;5091560;28;20442;-72
2021/07/24 02:08:49;;;;;;;32.00;29.30;;;18.40;99.90;;;;;;5091547;28;20450;-72
2021/07/24 02:11:19;;;;;;;32.83;29.97;;;18.50;99.90;;;;;;5091583;28;20457;-72
2021/07/24 02:13:47;;;;;;;32.27;29.47;;;18.50;99.90;;;;;;5091249;28;20837;-72
2021/07/24 02:16:14;;;;;;;31.20;28.90;;;18.60;99.90;;;;;;5091257;28;20474;-71
2021/07/24 02:18:42;;;;;;;32.63;29.93;;;18.50;99.90;;;;;;5091171;28;20446;-72
2021/07/24 02:21:10;;;;;;;30.23;27.60;;;18.60;99.90;;;;;;5091221;28;20454;-72
2021/07/24 02:23:36;;;;;;;30.30;27.60;;;18.50;99.90;;;;;;5091242;28;20454;-71
2021/07/24 02:26:03;;;;;;;29.60;27.33;;;18.40;99.90;;;;;;5091198;28;20443;-72
2021/07/24 02:28:31;;;;;;;29.00;26.70;;;18.40;99.90;;;;;;5090892;28;20454;-71
2021/07/24 02:30:58;;;;;;;30.70;28.40;;;18.50;99.90;;;;;;5091216;28;20477;-72
2021/07/24 02:33:24;;;;;;;30.90;28.40;;;18.60;99.90;;;;;;5091247;28;20450;-72
2021/07/24 02:35:51;;;;;;;28.93;26.70;;;18.60;99.90;;;;;;5090946;28;20442;-72
2021/07/24 02:38:18;;;;;;;30.03;27.37;;;18.60;99.90;;;;;;5091135;28;20453;-73
2021/07/24 02:40:45;;;;;;;29.57;27.10;;;18.60;99.90;;;;;;5090963;28;20931;-72
2021/07/24 02:43:12;;;;;;;31.20;28.70;;;18.60;99.90;;;;;;5090856;28;20452;-72
2021/07/24 02:45:40;;;;;;;33.47;30.57;;;18.70;99.90;;;;;;5091130;28;20457;-72
2021/07/24 02:48:06;;;;;;;28.23;25.93;;;18.70;99.90;;;;;;5090867;28;20496;-72
2021/07/24 02:50:33;;;;;;;29.03;26.93;;;18.70;99.90;;;;;;5091067;28;20457;-72
2021/07/24 02:53:00;;;;;;;29.60;27.03;;;18.80;99.90;;;;;;5090902;28;20453;-72
2021/07/24 02:55:26;;;;;;;28.07;25.87;;;18.90;99.90;;;;;;5094876;28;20461;-72
2021/07/24 02:57:53;;;;;;;28.90;26.70;;;18.90;99.90;;;;;;5094927;28;20906;-72
2021/07/24 03:00:20;;;;;;;28.13;25.93;;;18.90;99.90;;;;;;5094893;28;20442;-71
2021/07/24 03:02:49;;;;;;;29.13;26.87;;;18.90;99.90;;;;;;5095222;28;20472;-72
2021/07/24 03:05:15;;;;;;;28.13;25.90;;;18.90;99.90;;;;;;5094929;28;20454;-72
2021/07/24 03:07:42;;;;;;;28.77;26.63;;;18.90;99.90;;;;;;5094528;28;20449;-71
2021/07/24 03:10:10;;;;;;;27.87;25.77;;;18.90;99.90;;;;;;5094709;28;20932;-72
2021/07/24 03:12:37;;;;;;;31.07;28.20;;;18.60;99.90;;;;;;5094552;28;20924;-72
2021/07/24 03:15:04;;;;;;;31.07;28.37;;;18.90;99.90;;;;;;5094645;28;20824;-73
2021/07/24 03:17:31;;;;;;;30.83;28.27;;;18.90;99.90;;;;;;5094344;28;20531;-72
2021/07/24 03:20:02;;;;;;;29.63;27.30;;;18.90;99.90;;;;;;5094410;28;20450;-72
2021/07/24 03:22:28;;;;;;;30.13;27.80;;;18.90;99.90;;;;;;5094483;28;21010;-72
2021/07/24 03:24:56;;;;;;;29.00;26.60;;;19.00;99.90;;;;;;5094717;28;20476;-71
2021/07/24 03:27:23;;;;;;;29.47;26.97;;;18.90;99.90;;;;;;5094454;28;20481;-72
2021/07/24 03:29:49;;;;;;;30.73;27.60;;;18.90;99.90;;;;;;5094182;28;20445;-72
2021/07/24 03:32:16;;;;;;;27.60;25.40;;;18.90;99.90;;;;;;5094058;28;21076;-72
2021/07/24 03:34:42;;;;;;;29.37;26.90;;;19.00;99.90;;;;;;5094384;28;20473;-71
2021/07/24 03:37:10;;;;;;;30.07;27.50;;;19.00;99.90;;;;;;5094253;28;20489;-71
2021/07/24 03:39:37;;;;;;;28.30;25.97;;;19.00;99.90;;;;;;5094268;28;20450;-72
2021/07/24 03:42:04;;;;;;;31.23;28.67;;;19.00;99.90;;;;;;5094231;28;20450;-74
2021/07/24 03:44:31;;;;;;;28.90;26.60;;;19.10;99.90;;;;;;5093808;28;20446;-74
2021/07/24 03:46:58;;;;;;;30.27;27.80;;;19.10;99.90;;;;;;5093949;28;20442;-74
2021/07/24 03:49:24;;;;;;;29.87;27.47;;;19.10;99.90;;;;;;5094315;28;20453;-73
2021/07/24 03:51:51;;;;;;;29.93;27.07;;;19.20;99.90;;;;;;5094127;28;20472;-74
2021/07/24 03:54:19;;;;;;;29.20;26.80;;;19.20;99.90;;;;;;5093953;28;20457;-78
2021/07/24 03:56:46;;;;;;;29.83;27.50;;;19.20;99.90;;;;;;5093534;28;20543;-73
2021/07/24 03:59:12;;;;;;;29.83;27.70;;;19.30;99.90;;;;;;5093855;28;20450;-73
2021/07/24 04:01:40;;;;;;;31.60;28.67;;;19.40;99.90;;;;;;5093812;28;20507;-73
2021/07/24 04:04:07;;;;;;;28.50;26.47;;;19.40;99.90;;;;;;5093586;28;20555;-74
2021/07/24 04:06:34;;;;;;;29.27;26.80;;;19.40;99.90;;;;;;5093705;28;20449;-74
2021/07/24 04:09:03;;;;;;;30.00;27.43;;;19.50;99.90;;;;;;5093351;28;20483;-75
2021/07/24 04:11:31;;;;;;;32.10;29.57;;;19.50;99.90;;;;;;5093325;28;20458;-73
2021/07/24 04:13:58;;;;;;;29.57;27.30;;;19.50;99.90;;;;;;5093282;28;20478;-75
2021/07/24 04:16:28;;;;;;;28.77;26.40;;;19.40;99.90;;;;;;5093272;28;20575;-74
2021/07/24 04:18:55;;;;;;;29.50;27.10;;;19.60;99.90;;;;;;5093033;28;20533;-77
2021/07/24 04:21:21;;;;;;;27.07;24.77;;;19.60;99.90;;;;;;5093507;28;20513;-78
2021/07/24 04:23:48;;;;;;;30.07;27.77;;;19.70;99.90;;;;;;5093380;28;20469;-74
2021/07/24 04:26:15;;;;;;;30.73;27.80;;;19.80;99.90;;;;;;5093359;28;20457;-74
2021/07/24 04:28:43;;;;;;;29.10;26.30;;;19.90;99.90;;;;;;5093173;28;20446;-75
2021/07/24 04:31:13;;;;;;;31.13;28.30;;;19.80;99.90;;;;;;5092976;28;20450;-75
2021/07/24 04:33:40;;;;;;;28.70;26.43;;;19.90;99.90;;;;;;5093244;28;20821;-75
2021/07/24 04:36:07;;;;;;;28.47;26.20;;;19.90;99.90;;;;;;5093121;28;20458;-74
2021/07/24 04:38:34;;;;;;;29.37;26.93;;;19.90;99.90;;;;;;5093071;28;21005;-74
2021/07/24 04:41:00;;;;;;;29.60;26.90;;;19.80;99.90;;;;;;5093131;28;20446;-74
2021/07/24 04:43:27;;;;;;;30.37;27.37;;;19.90;99.90;;;;;;5092973;28;20454;-74
2021/07/24 04:45:55;;;;;;;30.23;27.37;;;19.80;99.90;;;;;;5092929;28;20480;-74
2021/07/24 04:48:22;;;;;;;30.30;27.70;;;20.00;99.90;;;;;;5092833;28;20841;-74
2021/07/24 04:50:53;;;;;;;29.30;26.80;;;20.10;99.90;;;;;;5092877;28;20930;-74
2021/07/24 04:53:21;;;;;;;28.20;26.03;;;20.20;99.90;;;;;;5092730;28;20958;-74
2021/07/24 04:55:48;;;;;;;29.00;26.57;;;20.30;99.90;;;;;;5092824;28;20496;-74
2021/07/24 04:58:15;;;;;;;29.30;26.90;;;20.40;99.90;;;;;;5092431;28;20861;-74
2021/07/24 05:00:44;;;;;;;25.90;23.87;;;20.40;99.90;;;;;;5092634;28;20470;-74
2021/07/24 05:03:13;;;;;;;26.00;24.10;;;20.40;99.90;;;;;;5092601;28;20882;-74
2021/07/24 05:05:41;;;;;;;27.27;24.77;;;20.30;99.90;;;;;;5092490;28;20477;-74
2021/07/24 05:08:08;;;;;;;26.07;23.53;;;20.20;99.90;;;;;;5092311;28;20446;-74
2021/07/24 05:10:36;;;;;;;26.83;24.63;;;20.10;99.90;;;;;;5092537;28;20454;-74
2021/07/24 05:13:02;;;;;;;27.10;25.10;;;20.00;99.90;;;;;;5092085;28;20817;-74
2021/07/24 05:15:29;;;;;;;28.63;26.17;;;19.90;99.90;;;;;;5092063;28;20454;-73
2021/07/24 05:17:56;;;;;;;27.97;25.47;;;19.90;99.90;;;;;;5091704;28;20485;-74
2021/07/24 05:20:25;;;;;;;29.37;26.90;;;20.00;99.90;;;;;;5092402;28;20446;-75
2021/07/24 05:22:51;;;;;;;30.00;27.50;;;20.10;99.90;;;;;;5092156;28;20482;-74
2021/07/24 05:25:18;;;;;;;28.17;26.17;;;20.30;99.90;;;;;;5092044;28;20861;-78
2021/07/24 05:27:45;;;;;;;29.33;26.77;;;20.30;99.90;;;;;;5092096;28;20449;-73
2021/07/24 05:30:13;;;;;;;27.90;25.57;;;20.50;99.90;;;;;;5091734;28;20450;-73
2021/07/24 05:32:41;;;;;;;29.70;27.30;;;20.60;99.90;;;;;;5092121;28;20454;-73
2021/07/24 05:35:08;;;;;;;26.33;23.93;;;20.70;99.90;;;;;;5092068;28;20479;-72
2021/07/24 05:37:36;;;;;;;26.60;24.47;;;20.80;99.90;;;;;;5091938;28;20527;-73
2021/07/24 05:40:03;;;;;;;30.00;27.30;;;21.10;99.90;;;;;;5091789;28;20450;-73
2021/07/24 05:42:30;;;;;;;26.23;24.30;;;21.20;99.90;;;;;;5091873;28;20446;-73
2021/07/24 05:44:56;;;;;;;28.80;26.40;;;21.30;99.90;;;;;;5091735;28;20442;-73
2021/07/24 05:47:23;;;;;;;28.33;26.13;;;21.40;99.90;;;;;;5091666;28;20488;-80
2021/07/24 05:49:50;;;;;;;28.40;26.30;;;21.60;99.90;;;;;;5091848;28;20487;-73
2021/07/24 05:52:17;;;;;;;28.73;26.03;;;21.90;99.90;;;;;;5091631;28;20531;-73
2021/07/24 05:54:45;;;;;;;26.70;24.73;;;22.00;99.90;;;;;;5091485;28;20495;-73
2021/07/24 05:57:12;;;;;;;27.57;25.47;;;22.40;99.90;;;;;;5091641;28;20486;-71
2021/07/24 05:59:38;;;;;;;28.87;25.40;;;23.00;99.90;;;;;;5091500;28;20458;-72
2021/07/24 06:02:06;;;;;;;26.63;24.33;;;23.40;99.90;;;;;;5098575;28;20444;-72
2021/07/24 06:04:33;;;;;;;27.07;24.97;;;23.80;99.90;;;;;;5111244;28;20588;-71
2021/07/24 06:07:00;;;;;;;27.73;25.43;;;24.10;99.90;;;;;;5111356;28;20485;-71
2021/07/24 06:09:27;;;;;;;27.50;25.30;;;24.10;99.90;;;;;;5111162;28;20445;-71
2021/07/24 06:11:56;;;;;;;28.20;25.40;;;24.10;99.90;;;;;;5111466;28;20449;-71
2021/07/24 06:14:23;;;;;;;27.17;24.90;;;24.10;99.90;;;;;;5111226;28;20476;-71
2021/07/24 06:16:50;;;;;;;27.70;25.20;;;24.10;99.90;;;;;;5111284;28;20441;-72
2021/07/24 06:19:17;;;;;;;28.30;26.10;;;23.90;99.90;;;;;;5111222;28;20525;-72
2021/07/24 06:21:44;;;;;;;26.73;24.67;;;23.60;99.90;;;;;;5111325;28;20480;-72
2021/07/24 06:24:10;;;;;;;26.60;24.47;;;23.20;99.90;;;;;;5111223;28;20454;-71
2021/07/24 06:26:37;;;;;;;34.63;25.50;;;22.90;99.90;;;;;;5111157;28;20449;-71
2021/07/24 06:29:06;;;;;;;26.47;23.87;;;22.70;99.90;;;;;;5110926;28;20528;-71
2021/07/24 06:31:33;;;;;;;26.77;24.47;;;22.50;99.90;;;;;;5111160;28;20457;-72
2021/07/24 06:34:02;;;;;;;26.53;24.30;;;22.40;99.90;;;;;;5111255;28;20449;-72
2021/07/24 06:36:28;;;;;;;26.10;24.07;;;22.10;99.90;;;;;;5111113;28;20800;-71
2021/07/24 06:38:56;;;;;;;27.23;24.80;;;21.90;99.90;;;;;;5110711;28;20488;-72
2021/07/24 06:41:23;;;;;;;26.40;24.17;;;21.80;99.90;;;;;;5111011;28;20456;-71
2021/07/24 06:43:49;;;;;;;25.90;23.70;;;22.00;99.90;;;;;;5111021;28;20456;-71
2021/07/24 06:46:17;;;;;;;26.53;24.50;;;22.10;99.90;;;;;;5111144;28;20498;-73
2021/07/24 06:48:44;;;;;;;26.77;24.67;;;22.20;99.90;;;;;;5110973;28;20470;-72
2021/07/24 06:51:11;;;;;;;24.67;22.70;;;22.50;99.90;;;;;;5110958;28;20460;-74
2021/07/24 06:53:38;;;;;;;26.27;24.20;;;23.00;99.90;;;;;;5108899;28;20548;-72
2021/07/24 06:56:05;;;;;;;26.27;24.27;;;23.30;99.90;;;;;;5111176;28;20441;-73
2021/07/24 06:58:33;;;;;;;26.60;24.60;;;23.40;99.90;;;;;;5111084;28;20477;-73
2021/07/24 07:01:00;;;;;;;25.80;23.27;;;23.30;99.90;;;;;;5111240;28;20445;-72
2021/07/24 07:03:28;;;;;;;24.87;22.50;;;23.30;99.90;;;;;;5111017;28;20453;-72
2021/07/24 07:05:54;;;;;;;24.40;22.63;;;23.40;99.90;;;;;;5111237;28;20441;-72
2021/07/24 07:08:23;;;;;;;25.43;23.53;;;23.90;99.90;;;;;;5111226;28;20441;-72
2021/07/24 07:10:50;;;;;;;24.63;22.90;;;24.40;99.90;;;;;;5111127;28;20955;-71
2021/07/24 07:13:17;;;;;;;24.90;22.70;;;24.50;99.90;;;;;;5111063;28;20491;-72
2021/07/24 07:15:44;;;;;;;25.70;23.60;;;24.40;99.90;;;;;;5110961;28;20453;-72
2021/07/24 07:18:11;;;;;;;24.27;22.50;;;24.10;99.90;;;;;;5110923;28;20489;-72
2021/07/24 07:20:39;;;;;;;25.40;23.20;;;24.20;99.90;;;;;;5111128;28;20480;-72
2021/07/24 07:23:05;;;;;;;24.37;22.67;;;24.10;99.90;;;;;;5111213;28;20864;-72
2021/07/24 07:25:32;;;;;;;26.60;24.60;;;24.30;99.90;;;;;;5111000;28;20936;-72
2021/07/24 07:27:59;;;;;;;25.83;23.57;;;24.40;99.90;;;;;;5110949;28;20448;-72
2021/07/24 07:30:25;;;;;;;24.90;22.80;;;24.40;99.90;;;;;;5110985;28;20450;-72
2021/07/24 07:32:52;;;;;;;25.30;23.40;;;24.30;99.90;;;;;;5110998;28;20476;-72
2021/07/24 07:35:19;;;;;;;26.40;24.43;;;24.00;99.90;;;;;;5110988;28;20467;-72
2021/07/24 07:37:53;;;;;;;28.23;26.10;;;23.60;99.90;;;;;;5110968;28;20823;-72
2021/07/24 07:40:20;;;;;;;27.30;25.10;;;23.30;99.90;;;;;;5112999;28;20488;-71
2021/07/24 07:42:47;;;;;;;28.60;26.50;;;22.90;99.90;;;;;;5114470;28;20445;-72
2021/07/24 07:45:14;;;;;;;26.70;24.80;;;22.70;99.90;;;;;;5114508;28;20449;-72
2021/07/24 07:47:41;;;;;;;27.17;24.40;;;22.50;99.90;;;;;;5114361;28;20484;-72
2021/07/24 07:50:09;;;;;;;26.13;24.23;;;22.50;99.90;;;;;;5114403;28;20941;-72
2021/07/24 07:52:35;;;;;;;27.70;25.10;;;22.50;99.90;;;;;;5114153;28;20452;-72
2021/07/24 07:55:05;;;;;;;26.43;24.33;;;22.60;99.90;;;;;;5114253;28;20989;-72
2021/07/24 07:57:31;;;;;;;26.33;24.13;;;22.70;99.90;;;;;;5114168;28;20445;-73
2021/07/24 07:59:58;;;;;;;26.13;24.20;;;22.80;99.90;;;;;;5114076;28;20445;-71
2021/07/24 08:02:25;;;;;;;25.90;24.03;;;22.90;99.90;;;;;;5114170;28;20445;-72
2021/07/24 08:04:52;;;;;;;26.90;24.27;;;23.00;99.90;;;;;;5114075;28;20445;-72
2021/07/24 08:07:18;;;;;;;26.73;24.60;;;22.80;99.90;;;;;;5113963;28;20817;-72
2021/07/24 08:09:45;;;;;;;25.90;24.00;;;22.80;99.90;;;;;;5113952;28;20449;-72
2021/07/24 08:12:13;;;;;;;25.60;23.70;;;22.90;99.90;;;;;;5113896;28;20449;-72
2021/07/24 08:14:40;;;;;;;25.30;23.40;;;23.00;99.90;;;;;;5113669;28;20469;-72
2021/07/24 08:17:08;;;;;;;26.83;24.50;;;23.00;99.90;;;;;;5113737;28;20453;-72
2021/07/24 08:19:35;;;;;;;25.27;23.37;;;23.00;99.90;;;;;;5113654;28;20572;-72
2021/07/24 08:22:01;;;;;;;24.90;22.87;;;23.00;99.90;;;;;;5113717;28;20531;-72
2021/07/24 08:24:28;;;;;;;24.27;22.27;;;23.00;99.90;;;;;;5113633;28;20517;-71
2021/07/24 08:26:55;;;;;;;28.27;25.80;;;23.00;99.90;;;;;;5113498;28;20453;-71
2021/07/24 08:29:23;;;;;;;24.40;22.77;;;23.00;99.90;;;;;;5113502;28;20848;-71
2021/07/24 08:31:49;;;;;;;23.93;22.07;;;22.80;99.90;;;;;;5113497;28;20448;-72
2021/07/24 08:34:16;;;;;;;24.50;22.63;;;22.90;99.90;;;;;;5113425;28;20498;-72
2021/07/24 08:36:43;;;;;;;25.23;23.07;;;23.00;99.90;;;;;;5113340;28;20533;-72
2021/07/24 08:39:10;;;;;;;26.40;24.07;;;23.30;99.90;;;;;;5113227;28;21039;-72
2021/07/24 08:41:40;;;;;;;25.60;23.37;;;23.70;99.90;;;;;;5113185;28;20442;-72
2021/07/24 08:44:07;;;;;;;24.23;22.53;;;24.10;99.90;;;;;;5113252;28;20484;-72
2021/07/24 08:46:35;;;;;;;22.70;21.10;;;24.20;99.90;;;;;;5113262;28;20482;-72
2021/07/24 08:49:02;;;;;;;25.43;23.37;;;24.50;99.90;;;;;;5113002;28;20480;-72
2021/07/24 08:51:32;;;;;;;25.47;22.93;;;25.00;99.90;;;;;;5111996;27;20446;-73
2021/07/24 08:53:59;;;;;;;26.43;24.40;;;25.60;99.90;;;;;;5113111;28;20445;-72
2021/07/24 08:56:29;;;;;;;25.03;23.30;;;25.90;99.90;;;;;;5113108;28;20437;-72
2021/07/24 08:58:59;;;;;;;24.70;22.90;;;26.80;99.90;;;;;;5112886;28;20584;-72
2021/07/24 09:01:26;;;;;;;25.30;23.37;;;27.60;99.90;;;;;;5112945;28;20445;-72
2021/07/24 09:03:56;;;;;;;25.90;23.90;;;28.10;98.20;;;;;;5112983;28;20450;-72
2021/07/24 09:06:24;;;;;;;26.43;24.63;;;28.50;97.50;;;;;;5112706;28;20948;-72
2021/07/24 09:08:53;;;;;;;24.83;22.93;;;28.60;97.40;;;;;;5112517;28;20463;-73
2021/07/24 09:11:20;;;;;;;26.90;24.93;;;28.90;96.60;;;;;;5112806;28;20446;-72
2021/07/24 09:13:47;;;;;;;25.87;23.90;;;29.00;95.70;;;;;;5112671;28;20476;-72
2021/07/24 09:16:14;;;;;;;25.50;23.60;;;28.50;96.60;;;;;;5112669;28;20453;-72
2021/07/24 09:18:42;;;;;;;25.93;24.13;;;28.20;97.40;;;;;;5112631;28;20530;-73
2021/07/24 09:21:10;;;;;;;25.20;23.60;;;28.00;97.50;;;;;;5112539;28;20933;-72
2021/07/24 09:23:39;;;;;;;22.67;21.17;;;28.00;96.60;;;;;;5112392;28;20450;-72
2021/07/24 09:26:06;;;;;;;24.07;22.47;;;28.00;96.30;;;;;;5112496;28;20522;-72
2021/07/24 09:28:33;;;;;;;25.00;23.13;;;28.50;95.80;;;;;;5112503;28;20858;-73
2021/07/24 09:31:20;;;;;;;25.00;23.00;;;28.40;95.50;;;;;;5112475;28;20453;-72
2021/07/24 09:33:50;;;;;;;24.60;23.07;;;28.20;96.20;;;;;;5112412;28;20452;-73
2021/07/24 09:36:31;;;;;;;23.80;22.20;;;28.50;95.80;;;;;;5112321;28;20481;-72
2021/07/24 09:39:08;;;;;;;25.47;23.77;;;29.30;94.80;;;;;;5112280;28;20575;-72
2021/07/24 09:41:35;;;;;;;25.23;23.40;;;30.00;93.50;;;;;;5112348;28;20445;-72
2021/07/24 09:44:02;;;;;;;25.43;23.70;;;29.80;94.10;;;;;;5111990;28;20445;-72
2021/07/24 09:46:28;;;;;;;24.90;23.20;;;29.50;94.50;;;;;;5112280;28;20445;-72
2021/07/24 09:48:56;;;;;;;26.10;24.20;;;29.70;94.00;;;;;;5111941;28;20473;-73
2021/07/24 09:51:34;;;;;;;25.00;23.40;;;29.80;94.30;;;;;;5112085;28;20453;-72
2021/07/24 09:54:01;;;;;;;26.20;24.30;;;29.80;93.80;;;;;;5112139;28;20449;-72
2021/07/24 09:56:38;;;;;;;24.83;23.20;;;29.80;93.90;;;;;;5111981;28;20449;-72
2021/07/24 09:59:17;;;;;;;24.50;22.43;;;30.00;93.50;;;;;;5111928;28;20580;-72
2021/07/24 10:01:44;;;;;;;23.73;22.13;;;29.30;94.10;;;;;;5111966;28;20541;-73
2021/07/24 10:04:11;;;;;;;23.17;21.60;;;29.70;94.00;;;;;;5111526;28;20452;-73
2021/07/24 10:06:44;;;;;;;24.80;22.97;;;29.90;92.90;;;;;;5111670;28;20441;-72
2021/07/24 10:09:12;;;;;;;24.10;22.50;;;29.50;93.50;;;;;;5111679;28;20472;-72
2021/07/24 10:11:38;;;;;;;23.87;22.07;;;29.40;93.70;;;;;;5111668;28;20862;-72
2021/07/24 10:14:05;;;;;;;25.30;23.50;;;29.60;93.30;;;;;;5111451;28;20465;-72
2021/07/24 10:16:32;;;;;;;24.77;23.07;;;29.50;93.20;;;;;;5111488;28;20441;-72
2021/07/24 10:18:59;;;;;;;23.30;21.70;;;29.70;93.30;;;;;;5111427;28;20485;-73
2021/07/24 10:21:26;;;;;;;23.93;22.43;;;30.70;92.00;;;;;;5111610;28;20449;-72
2021/07/24 10:23:54;;;;;;;23.50;21.87;;;30.80;91.30;;;;;;5111567;28;20453;-72
2021/07/24 10:26:26;;;;;;;24.83;23.40;;;30.80;91.20;;;;;;5111682;28;20450;-73
2021/07/24 10:28:57;;;;;;;24.30;22.67;;;31.40;90.00;;;;;;5111570;28;20448;-73
2021/07/24 10:31:26;;;;;;;25.17;23.50;;;32.20;87.70;;;;;;5111635;28;20445;-73
2021/07/24 10:34:00;;;;;;;25.90;23.80;;;32.40;87.10;;;;;;5111645;28;20823;-73
2021/07/24 10:36:36;;;;;;;24.40;22.30;;;32.60;84.70;;;;;;5111371;28;20456;-74
2021/07/24 10:39:05;;;;;;;25.33;23.53;;;32.70;84.10;;;;;;5111537;28;20480;-74
2021/07/24 10:41:37;;;;;;;24.47;22.77;;;32.30;83.60;;;;;;5111413;28;20461;-74
2021/07/24 10:44:05;;;;;;;24.37;22.93;;;32.10;85.10;;;;;;5111385;28;20484;-74
2021/07/24 10:47:09;;;;;;;23.27;21.87;;;31.70;85.00;;;;;;5111070;28;20449;-74
2021/07/24 10:50:04;;;;;;;24.30;22.60;;;31.40;87.30;;;;;;5111384;28;20484;-74
2021/07/24 10:53:08;;;;;;;25.40;23.10;;;31.50;87.50;;;;;;5104268;28;20888;-73
2021/07/24 10:55:40;;;;;;;25.00;23.20;;;31.80;86.20;;;;;;5090967;28;20549;-73
2021/07/24 10:58:07;;;;;;;24.90;22.67;;;31.30;85.60;;;;;;5090674;28;20457;-73
2021/07/24 11:00:40;;;;;;;24.33;22.83;;;30.90;85.20;;;;;;5090718;28;20849;-73
2021/07/24 11:03:49;;;;;;;24.03;22.20;;;30.50;86.80;;;;;;5090985;28;20450;-72
2021/07/24 11:06:36;;;;;;;24.03;22.33;;;30.40;87.00;;;;;;5086167;28;20466;-73
2021/07/24 11:09:20;;;;;;;24.60;22.87;;;30.20;89.20;;;;;;5084069;28;20472;-73
2021/07/24 11:12:06;;;;;;;23.37;21.77;;;30.40;89.40;;;;;;5090339;28;20864;-73
2021/07/24 11:14:57;;;;;;;25.90;24.10;;;31.30;88.50;;;;;;5090486;28;20478;-73
2021/07/24 11:17:24;;;;;;;24.20;22.60;;;32.90;84.90;;;;;;5092803;28;20533;-73
2021/07/24 11:20:30;;;;;;;23.27;21.83;;;33.20;82.30;;;;;;5094076;28;21020;-74
2021/07/24 11:23:09;;;;;;;22.77;21.27;;;33.50;81.10;;;;;;5094239;28;20453;-74
2021/07/24 11:25:40;;;;;;;24.67;22.80;;;33.80;80.80;;;;;;5094422;28;20569;-73
2021/07/24 11:28:16;;;;;;;23.07;21.57;;;33.30;81.00;;;;;;5094077;28;20454;-73
2021/07/24 11:30:42;;;;;;;20.23;18.93;;;33.00;81.10;;;;;;5094099;28;20474;-73
2021/07/24 11:33:16;;;;;;;20.93;19.50;;;32.60;81.50;;;;;;5094144;28;20866;-73
2021/07/24 11:35:44;;;;;;;22.20;20.73;;;32.20;82.10;;;;;;5094391;28;20434;-73
2021/07/24 11:38:24;;;;;;;19.63;18.43;;;31.20;84.40;;;;;;5093996;28;20442;-72
2021/07/24 11:41:04;;;;;;;19.57;18.30;;;30.60;84.50;;;;;;5094034;28;20485;-72
2021/07/24 11:43:32;;;;;;;18.10;16.80;;;30.30;85.50;;;;;;5093973;28;20457;-73
2021/07/24 11:46:07;;;;;;;19.07;17.87;;;30.30;84.40;;;;;;5093940;28;20457;-73
2021/07/24 11:48:37;;;;;;;17.47;16.47;;;29.80;86.20;;;;;;5094035;28;20473;-73
2021/07/24 11:51:06;;;;;;;19.00;17.80;;;29.80;85.40;;;;;;5093608;28;20450;-72
2021/07/24 11:53:33;;;;;;;18.20;17.07;;;29.60;83.90;;;;;;5093603;28;20446;-73
2021/07/24 11:56:00;;;;;;;18.50;17.20;;;29.50;84.00;;;;;;5093818;28;20446;-73
2021/07/24 11:58:27;;;;;;;18.17;16.93;;;29.30;85.00;;;;;;5093605;28;20503;-72
2021/07/24 12:00:56;;;;;;;17.73;16.80;;;29.90;86.20;;;;;;5093557;28;20493;-73
2021/07/24 12:03:24;;;;;;;18.37;17.27;;;29.60;82.40;;;;;;5093534;28;20458;-73
2021/07/24 12:05:52;;;;;;;19.53;18.30;;;30.10;81.60;;;;;;5093369;28;20452;-72
2021/07/24 12:08:22;;;;;;;18.17;17.10;;;30.50;80.50;;;;;;5093407;28;20454;-72
2021/07/24 12:10:50;;;;;;;18.93;18.00;;;30.60;81.20;;;;;;5093488;28;20445;-72
2021/07/24 12:13:22;;;;;;;18.33;17.33;;;31.20;80.50;;;;;;5093056;28;20470;-73
2021/07/24 12:16:04;;;;;;;19.87;18.67;;;32.00;78.60;;;;;;5093134;28;20478;-73
2021/07/24 12:18:38;;;;;;;20.80;19.53;;;32.90;76.70;;;;;;5093421;28;20454;-73
2021/07/24 12:21:10;;;;;;;20.27;19.07;;;33.10;75.70;;;;;;5093139;28;20535;-73
2021/07/24 12:23:42;;;;;;;20.20;18.80;;;33.90;73.40;;;;;;5092999;28;20972;-73
2021/07/24 12:26:10;;;;;;;19.90;18.80;;;34.00;73.10;;;;;;5092664;28;20499;-73
2021/07/24 12:28:37;;;;;;;20.60;19.50;;;34.10;72.00;;;;;;5092713;28;20450;-74
2021/07/24 12:31:22;;;;;;;20.87;19.67;;;34.20;71.80;;;;;;5092786;28;21247;-73
2021/07/24 12:33:50;;;;;;;19.23;18.20;;;34.10;71.10;;;;;;5092867;28;20559;-73
2021/07/24 12:36:19;;;;;;;19.23;18.23;;;34.30;71.30;;;;;;5092723;28;21079;-74
2021/07/24 12:38:46;;;;;;;18.80;17.60;;;34.80;68.90;;;;;;5092855;28;20449;-73